Time;durP1;ratioP1;P1;durP2;ratioP2;P2;SDS_P1;SDS_P2;PMS_P1;PMS_P2;Temp;Humidity;BMP_temperature;BMP_pressure;BME280_temperature;BME280_humidity;BME280_pressure;Samples;Min_cycle;Max_cycle;Signal;HPM_P1;HPM_P2
2022/03/02 00:00:13;;;;;;;7.50;3.17;;;7.40;99.90;;;;;;5050821;28;20028;-85
2022/03/02 00:02:41;;;;;;;8.30;3.17;;;7.40;99.90;;;;;;5050650;28;20017;-85
2022/03/02 00:05:08;;;;;;;5.60;3.17;;;7.40;99.90;;;;;;5051306;28;20475;-85
2022/03/02 00:07:34;;;;;;;6.53;3.67;;;7.30;99.90;;;;;;5050431;28;20020;-85
2022/03/02 00:10:00;;;;;;;11.82;4.30;;;7.30;99.90;;;;;;5032130;28;20482;-85
2022/03/02 00:12:26;;;;;;;10.07;3.63;;;7.30;99.90;;;;;;5040086;28;20025;-85
2022/03/02 00:14:52;;;;;;;9.88;3.42;;;7.40;99.90;;;;;;5050662;28;20044;-85
2022/03/02 00:17:17;;;;;;;8.00;3.28;;;7.30;99.90;;;;;;5050009;28;20032;-85
2022/03/02 00:19:43;;;;;;;7.50;3.05;;;7.40;99.90;;;;;;5052615;28;20506;-85
2022/03/02 00:22:10;;;;;;;5.07;2.67;;;7.40;99.90;;;;;;5032324;28;20029;-85
2022/03/02 00:24:36;;;;;;;5.80;3.28;;;7.30;99.90;;;;;;5048127;28;20021;-85
2022/03/02 00:27:02;;;;;;;6.05;3.00;;;7.30;99.90;;;;;;5050547;28;20633;-85
2022/03/02 00:29:28;;;;;;;5.50;2.42;;;7.30;99.90;;;;;;5050494;28;20033;-85
2022/03/02 00:31:54;;;;;;;5.00;3.20;;;7.40;99.90;;;;;;5052247;28;20043;-85
2022/03/02 00:34:19;;;;;;;9.10;3.13;;;7.20;99.90;;;;;;5050027;28;20490;-85
2022/03/02 00:36:45;;;;;;;6.10;2.83;;;7.30;99.90;;;;;;5049731;28;20498;-85
2022/03/02 00:39:11;;;;;;;4.53;2.67;;;7.30;99.90;;;;;;5049838;28;20035;-85
2022/03/02 00:41:37;;;;;;;6.65;2.70;;;7.30;99.90;;;;;;5050225;28;20032;-85
2022/03/02 00:44:03;;;;;;;6.22;3.08;;;7.30;99.90;;;;;;5051505;28;20070;-85
2022/03/02 00:46:29;;;;;;;6.05;2.35;;;7.30;99.90;;;;;;5049551;28;20090;-85
2022/03/02 00:48:57;;;;;;;4.22;2.65;;;7.20;99.90;;;;;;5045568;28;20106;-85
2022/03/02 00:51:23;;;;;;;4.57;2.55;;;7.20;99.90;;;;;;5041905;28;20022;-85
2022/03/02 00:53:51;;;;;;;9.88;3.33;;;7.20;99.90;;;;;;5049684;28;20024;-85
2022/03/02 00:56:16;;;;;;;6.50;2.85;;;7.20;99.90;;;;;;5050483;28;20032;-85
2022/03/02 00:58:42;;;;;;;5.72;2.80;;;7.20;99.90;;;;;;5049479;28;20368;-85
2022/03/02 01:01:08;;;;;;;9.77;3.67;;;7.20;99.90;;;;;;5049774;28;20040;-85
2022/03/02 01:03:33;;;;;;;4.80;2.55;;;7.20;99.90;;;;;;5049673;28;20525;-85
2022/03/02 01:06:00;;;;;;;5.28;2.78;;;7.10;99.90;;;;;;5049099;28;20514;-85
2022/03/02 01:08:26;;;;;;;6.43;2.60;;;7.10;99.90;;;;;;5049473;28;20052;-85
2022/03/02 01:10:52;;;;;;;7.70;3.65;;;7.00;99.90;;;;;;5048776;28;20045;-85
2022/03/02 01:13:18;;;;;;;6.25;2.97;;;6.90;99.90;;;;;;5048862;28;20116;-85
2022/03/02 01:15:44;;;;;;;9.95;3.10;;;6.90;99.90;;;;;;5049525;28;20043;-85
2022/03/02 01:18:09;;;;;;;9.93;3.13;;;7.00;99.90;;;;;;5050216;28;20060;-85
2022/03/02 01:20:35;;;;;;;5.88;2.80;;;7.00;99.90;;;;;;5051355;28;20017;-86
2022/03/02 01:23:01;;;;;;;9.75;2.53;;;7.00;99.90;;;;;;5051274;28;20450;-85
2022/03/02 01:25:27;;;;;;;5.72;3.15;;;7.00;99.90;;;;;;5048824;28;20021;-85
2022/03/02 01:27:53;;;;;;;6.78;3.47;;;7.00;99.90;;;;;;5044538;28;20154;-85
2022/03/02 01:30:20;;;;;;;4.25;2.75;;;7.00;99.90;;;;;;5048070;28;20040;-86
2022/03/02 01:32:46;;;;;;;3.72;2.70;;;6.90;99.90;;;;;;5049184;28;20021;-86
2022/03/02 01:35:12;;;;;;;4.72;2.55;;;6.90;99.90;;;;;;5033918;28;20068;-86
2022/03/02 01:37:38;;;;;;;8.23;3.35;;;6.70;99.90;;;;;;5050537;28;20033;-86
2022/03/02 01:40:09;;;;;;;6.82;2.72;;;6.70;99.90;;;;;;5048866;28;20033;-85
2022/03/02 01:42:38;;;;;;;7.88;3.55;;;6.80;99.90;;;;;;5048752;28;20025;-86
2022/03/02 01:45:06;;;;;;;4.88;2.67;;;6.80;99.90;;;;;;5048247;28;20159;-85
2022/03/02 01:47:32;;;;;;;4.93;3.20;;;6.80;99.90;;;;;;5041424;28;20021;-85
2022/03/02 01:49:58;;;;;;;4.15;2.80;;;6.90;99.90;;;;;;5042885;28;20052;-85
2022/03/02 01:52:24;;;;;;;6.75;3.25;;;7.00;99.90;;;;;;5047032;28;20032;-85
2022/03/02 01:54:49;;;;;;;9.05;2.80;;;7.00;99.90;;;;;;5048605;28;20025;-86
2022/03/02 01:57:15;;;;;;;6.85;3.30;;;7.00;99.90;;;;;;5048410;28;20410;-86
2022/03/02 01:59:41;;;;;;;6.45;3.38;;;7.00;99.90;;;;;;5048660;28;20029;-85
2022/03/02 02:02:07;;;;;;;6.47;3.05;;;7.00;99.90;;;;;;5038116;28;20033;-85
2022/03/02 02:04:33;;;;;;;6.55;2.83;;;7.00;99.90;;;;;;5031787;28;20553;-85
2022/03/02 02:06:58;;;;;;;6.57;2.65;;;7.10;99.90;;;;;;5047401;28;20037;-85
2022/03/02 02:09:24;;;;;;;8.65;2.90;;;7.10;99.90;;;;;;5046095;28;20495;-86
2022/03/02 02:11:50;;;;;;;6.25;3.00;;;7.20;99.90;;;;;;5048519;28;20462;-86
2022/03/02 02:14:16;;;;;;;4.97;3.10;;;7.20;99.90;;;;;;5048098;28;20087;-85
2022/03/02 02:16:42;;;;;;;8.43;2.92;;;7.30;99.90;;;;;;5050224;28;20503;-86
2022/03/02 02:19:08;;;;;;;7.00;3.58;;;7.20;99.90;;;;;;5048487;28;20100;-85
2022/03/02 02:21:35;;;;;;;4.25;2.83;;;7.30;99.90;;;;;;5047768;28;20093;-86
2022/03/02 02:24:00;;;;;;;6.43;3.20;;;7.20;99.90;;;;;;5047555;28;20013;-86
2022/03/02 02:26:26;;;;;;;7.75;3.35;;;7.30;99.90;;;;;;5022723;28;20384;-85
2022/03/02 02:28:53;;;;;;;6.30;2.85;;;7.30;99.90;;;;;;5042972;28;20029;-85
2022/03/02 02:31:19;;;;;;;6.43;2.70;;;7.30;99.90;;;;;;5045922;28;20124;-86
2022/03/02 02:33:45;;;;;;;8.85;3.72;;;7.30;99.90;;;;;;5048519;28;20178;-86
2022/03/02 02:36:12;;;;;;;4.85;2.88;;;7.20;99.90;;;;;;5051967;28;20502;-85
2022/03/02 02:38:38;;;;;;;6.88;3.67;;;7.20;99.90;;;;;;5052564;28;20090;-85
2022/03/02 02:41:07;;;;;;;9.30;3.28;;;7.20;99.90;;;;;;5054124;28;20025;-85
2022/03/02 02:43:32;;;;;;;9.23;3.67;;;7.20;99.90;;;;;;5051570;28;20143;-86
2022/03/02 02:45:58;;;;;;;5.20;3.05;;;7.20;99.90;;;;;;5047080;28;20474;-86
2022/03/02 02:48:24;;;;;;;8.23;3.58;;;7.20;99.90;;;;;;5050248;28;20052;-85
2022/03/02 02:50:50;;;;;;;7.10;3.60;;;7.20;99.90;;;;;;5047301;28;20514;-86
2022/03/02 02:53:16;;;;;;;9.30;3.08;;;7.20;99.90;;;;;;5036491;28;20029;-86
2022/03/02 02:55:43;;;;;;;6.80;2.97;;;7.20;99.90;;;;;;5053855;28;20029;-85
2022/03/02 02:58:10;;;;;;;9.07;3.22;;;7.20;99.90;;;;;;5051866;28;20033;-85
2022/03/02 03:00:41;;;;;;;4.90;3.20;;;7.20;99.90;;;;;;5051408;28;20021;-85
2022/03/02 03:03:07;;;;;;;8.85;4.07;;;7.20;99.90;;;;;;5051514;28;20095;-85
2022/03/02 03:05:34;;;;;;;6.78;3.63;;;7.20;99.90;;;;;;5052304;28;20471;-86
2022/03/02 03:08:05;;;;;;;8.07;3.40;;;7.20;99.90;;;;;;5051153;28;20045;-85
2022/03/02 03:10:32;;;;;;;;;;;7.20;99.90;;;;;;5052699;28;20016;-85
2022/03/02 03:12:58;;;;;;;8.82;2.92;;;7.20;99.90;;;;;;5051935;28;19908;-85
2022/03/02 03:15:25;;;;;;;8.93;3.50;;;7.20;99.90;;;;;;5051199;28;20067;-85
2022/03/02 03:17:51;;;;;;;8.13;3.30;;;7.20;99.90;;;;;;5051124;28;20020;-85
2022/03/02 03:20:21;;;;;;;6.40;3.17;;;7.20;99.90;;;;;;5051956;28;20025;-85
2022/03/02 03:22:47;;;;;;;9.77;4.25;;;7.20;99.90;;;;;;5052045;28;20021;-85
2022/03/02 03:25:14;;;;;;;8.23;3.58;;;7.30;99.90;;;;;;5047359;28;20037;-86
2022/03/02 03:27:41;;;;;;;10.20;3.92;;;7.20;99.90;;;;;;5049228;28;20025;-86
2022/03/02 03:30:09;;;;;;;7.15;3.53;;;7.20;99.90;;;;;;5050683;28;20120;-85
2022/03/02 03:32:36;;;;;;;6.00;2.97;;;7.20;99.90;;;;;;5051412;28;20021;-85
2022/03/02 03:35:03;;;;;;;7.68;3.58;;;7.20;99.90;;;;;;5053257;28;20029;-85
2022/03/02 03:37:29;;;;;;;7.35;3.45;;;7.20;99.90;;;;;;5052013;28;20036;-85
2022/03/02 03:39:55;;;;;;;5.50;3.70;;;7.20;99.90;;;;;;5049387;28;20490;-85
2022/03/02 03:42:23;;;;;;;5.80;3.28;;;7.20;99.90;;;;;;5046679;28;20052;-86
2022/03/02 03:44:49;;;;;;;7.97;3.67;;;7.20;99.90;;;;;;5051026;28;20044;-85
2022/03/02 03:47:14;;;;;;;4.43;3.28;;;7.20;99.90;;;;;;5049177;28;20032;-85
2022/03/02 03:49:40;;;;;;;6.85;2.67;;;7.20;99.90;;;;;;5051889;28;20045;-86
2022/03/02 03:52:06;;;;;;;5.32;3.10;;;7.10;99.90;;;;;;5048294;28;20033;-86
2022/03/02 03:54:33;;;;;;;5.78;3.05;;;7.20;99.90;;;;;;5050919;28;20045;-86
2022/03/02 03:56:59;;;;;;;8.75;3.05;;;7.10;99.90;;;;;;5038456;28;20027;-85
2022/03/02 03:59:25;;;;;;;6.57;3.15;;;7.10;99.90;;;;;;5051250;28;20067;-85
2022/03/02 04:01:51;;;;;;;7.18;3.17;;;7.10;99.90;;;;;;5051552;28;20540;-85
2022/03/02 04:04:16;;;;;;;9.38;3.28;;;7.10;99.90;;;;;;5046632;28;20103;-85
2022/03/02 04:06:42;;;;;;;10.60;3.97;;;7.10;99.90;;;;;;5049567;28;20500;-85
2022/03/02 04:09:08;;;;;;;5.85;3.20;;;7.10;99.90;;;;;;5050814;28;20025;-86
2022/03/02 04:11:33;;;;;;;6.00;3.38;;;7.10;99.90;;;;;;5050789;28;20017;-85
2022/03/02 04:13:59;;;;;;;5.22;3.05;;;7.10;99.90;;;;;;5052775;28;20483;-85
2022/03/02 04:16:25;;;;;;;5.50;2.97;;;7.10;99.90;;;;;;5050085;28;20032;-86
2022/03/02 04:18:50;;;;;;;5.35;2.67;;;7.00;99.90;;;;;;5048811;28;20486;-85
2022/03/02 04:21:16;;;;;;;4.50;2.88;;;7.10;99.90;;;;;;5045802;28;20029;-86
2022/03/02 04:23:42;;;;;;;6.03;3.22;;;7.00;99.90;;;;;;5050393;28;20042;-85
2022/03/02 04:26:08;;;;;;;7.03;3.60;;;7.00;99.90;;;;;;5043498;28;20026;-85
2022/03/02 04:28:34;;;;;;;8.02;2.92;;;7.00;99.90;;;;;;5051489;28;20029;-85
2022/03/02 04:31:00;;;;;;;5.55;2.90;;;7.10;99.90;;;;;;5050026;28;20105;-85
2022/03/02 04:33:25;;;;;;;7.65;2.60;;;7.20;99.90;;;;;;5050000;28;20033;-85
2022/03/02 04:35:51;;;;;;;6.28;2.75;;;7.10;99.90;;;;;;5049296;28;20037;-85
2022/03/02 04:38:17;;;;;;;6.63;3.00;;;7.20;99.90;;;;;;5050449;28;20506;-85
2022/03/02 04:40:42;;;;;;;6.28;2.85;;;7.20;99.90;;;;;;5050836;28;20017;-85
2022/03/02 04:43:09;;;;;;;6.15;3.50;;;7.20;99.90;;;;;;5049762;28;20487;-85
2022/03/02 04:45:34;;;;;;;5.57;3.03;;;7.20;99.90;;;;;;5048095;28;20460;-85
2022/03/02 04:48:01;;;;;;;4.15;3.25;;;7.20;99.90;;;;;;5050373;28;20070;-85
2022/03/02 04:50:27;;;;;;;4.80;2.95;;;7.20;99.90;;;;;;5047735;28;20048;-85
2022/03/02 04:52:54;;;;;;;5.47;3.20;;;7.10;99.90;;;;;;5040200;28;20029;-85
2022/03/02 04:55:21;;;;;;;5.63;2.75;;;7.20;99.90;;;;;;5048892;28;20102;-85
2022/03/02 04:57:54;;;;;;;4.72;2.72;;;7.10;99.90;;;;;;5049529;28;20102;-85
2022/03/02 05:00:23;;;;;;;5.97;2.60;;;7.10;99.90;;;;;;5039819;28;20067;-85
2022/03/02 05:02:50;;;;;;;5.70;3.08;;;7.10;99.90;;;;;;5049294;28;20029;-85
2022/03/02 05:05:19;;;;;;;7.55;2.83;;;7.10;99.90;;;;;;5047926;28;20021;-85
2022/03/02 05:07:45;;;;;;;6.40;2.55;;;7.20;99.90;;;;;;5051353;28;20513;-85
2022/03/02 05:10:12;;;;;;;7.88;2.90;;;7.00;99.90;;;;;;5049633;28;20086;-85
2022/03/02 05:12:39;;;;;;;5.78;2.80;;;7.10;99.90;;;;;;5049598;28;20025;-85
2022/03/02 05:15:06;;;;;;;4.75;2.50;;;7.00;99.90;;;;;;5048450;28;20020;-85
2022/03/02 05:17:32;;;;;;;5.72;2.55;;;7.10;99.90;;;;;;5038761;28;20027;-85
2022/03/02 05:19:58;;;;;;;5.85;2.80;;;7.10;99.90;;;;;;5051150;28;20064;-85
2022/03/02 05:22:24;;;;;;;5.85;2.92;;;7.20;99.90;;;;;;5045823;28;20422;-85
2022/03/02 05:24:49;;;;;;;7.03;2.78;;;7.20;99.90;;;;;;5048032;28;20035;-85
2022/03/02 05:27:15;;;;;;;4.90;2.60;;;7.30;99.90;;;;;;5048987;28;20092;-85
2022/03/02 05:29:41;;;;;;;6.18;3.17;;;7.20;99.90;;;;;;5031284;28;20502;-85
2022/03/02 05:32:07;;;;;;;5.53;3.08;;;7.30;99.90;;;;;;5050468;28;20025;-85
2022/03/02 05:34:33;;;;;;;8.85;2.72;;;7.30;99.90;;;;;;5042878;28;20037;-85
2022/03/02 05:36:59;;;;;;;5.80;3.20;;;7.40;99.90;;;;;;5044898;28;20094;-85
2022/03/02 05:39:25;;;;;;;6.45;3.13;;;7.40;99.90;;;;;;5048362;28;20064;-85
2022/03/02 05:41:51;;;;;;;7.18;3.95;;;7.50;99.90;;;;;;5047862;28;20103;-85
2022/03/02 05:44:18;;;;;;;7.25;2.97;;;7.50;99.90;;;;;;5047234;28;20036;-85
2022/03/02 05:46:44;;;;;;;9.70;3.78;;;7.50;99.90;;;;;;5047749;28;20086;-85
2022/03/02 05:49:10;;;;;;;9.25;3.15;;;7.60;99.90;;;;;;5048288;28;20502;-85
2022/03/02 05:51:36;;;;;;;6.97;3.40;;;7.60;99.90;;;;;;5047734;28;20052;-85
2022/03/02 05:54:04;;;;;;;8.45;3.70;;;7.70;99.90;;;;;;5048892;28;20071;-85
2022/03/02 05:56:33;;;;;;;7.65;4.63;;;7.60;99.90;;;;;;5048391;28;20029;-85
2022/03/02 05:58:58;;;;;;;9.00;5.03;;;7.80;99.90;;;;;;5050868;28;20017;-85
2022/03/02 06:01:25;;;;;;;8.63;4.97;;;7.80;99.90;;;;;;5044396;28;20627;-85
2022/03/02 06:03:51;;;;;;;9.95;4.28;;;7.80;99.90;;;;;;5046331;28;20029;-85
2022/03/02 06:06:17;;;;;;;10.82;4.95;;;7.80;99.90;;;;;;5047950;28;20021;-85
2022/03/02 06:08:44;;;;;;;7.53;4.15;;;7.80;99.90;;;;;;5047730;28;20437;-85
2022/03/02 06:11:10;;;;;;;8.35;4.07;;;7.80;99.90;;;;;;5049034;28;20059;-85
2022/03/02 06:13:36;;;;;;;10.20;4.28;;;7.70;99.90;;;;;;5049990;28;20029;-85
2022/03/02 06:16:02;;;;;;;7.65;4.13;;;7.70;99.90;;;;;;5047996;28;20029;-85
2022/03/02 06:18:31;;;;;;;8.05;3.78;;;7.70;99.90;;;;;;5048298;28;20032;-85
2022/03/02 06:21:00;;;;;;;7.75;3.38;;;7.70;99.90;;;;;;5047126;28;20103;-85
2022/03/02 06:23:28;;;;;;;8.93;3.55;;;7.70;99.90;;;;;;5047617;28;20098;-85
2022/03/02 06:25:54;;;;;;;9.95;4.88;;;7.70;99.90;;;;;;5049800;28;20028;-85
2022/03/02 06:28:19;;;;;;;7.15;4.28;;;7.70;99.90;;;;;;5048358;28;20053;-85
2022/03/02 06:30:45;;;;;;;9.18;3.95;;;7.70;99.90;;;;;;5048009;28;20053;-85
2022/03/02 06:33:15;;;;;;;6.38;3.45;;;7.70;99.90;;;;;;5048330;28;20040;-85
2022/03/02 06:35:41;;;;;;;7.15;4.43;;;7.80;99.90;;;;;;5047069;28;20035;-85
2022/03/02 06:38:06;;;;;;;7.38;3.85;;;7.70;99.90;;;;;;5048384;28;20025;-85
2022/03/02 06:40:32;;;;;;;7.00;3.58;;;7.70;99.90;;;;;;5045964;28;20086;-85
2022/03/02 06:43:08;;;;;;;10.80;3.97;;;7.80;99.90;;;;;;5046693;28;20032;-85
2022/03/02 06:46:02;;;;;;;9.70;4.60;;;7.80;99.90;;;;;;5047933;28;20032;-85
2022/03/02 06:48:32;;;;;;;7.80;3.83;;;7.80;99.90;;;;;;5047952;28;20094;-85
2022/03/02 06:51:00;;;;;;;6.57;4.13;;;7.80;99.90;;;;;;5029668;28;20517;-85
2022/03/02 06:53:35;;;;;;;10.82;4.35;;;7.90;99.90;;;;;;5048119;28;20040;-85
2022/03/02 06:56:10;;;;;;;10.93;5.15;;;8.00;99.90;;;;;;5029113;28;20507;-84
2022/03/02 06:58:41;;;;;;;10.10;4.57;;;8.00;99.90;;;;;;5047421;28;20033;-84
2022/03/02 07:01:10;;;;;;;8.88;4.18;;;8.00;99.90;;;;;;5048175;28;20029;-85
2022/03/02 07:03:46;;;;;;;8.15;4.00;;;8.10;99.90;;;;;;5047778;28;20025;-85
2022/03/02 07:06:14;;;;;;;11.73;4.30;;;8.20;99.90;;;;;;5047349;28;20048;-85
2022/03/02 07:08:45;;;;;;;10.27;4.45;;;8.20;99.90;;;;;;5047946;28;20175;-85
2022/03/02 07:11:11;;;;;;;7.65;3.80;;;8.20;99.90;;;;;;5048028;28;20028;-85
2022/03/02 07:13:37;;;;;;;8.30;3.60;;;8.20;99.90;;;;;;5049904;28;20021;-85
2022/03/02 07:16:04;;;;;;;6.72;3.58;;;8.20;99.90;;;;;;5044787;28;20036;-85
2022/03/02 07:18:30;;;;;;;6.45;3.60;;;8.30;99.90;;;;;;5046762;28;20029;-85
2022/03/02 07:20:59;;;;;;;5.82;3.63;;;8.30;99.90;;;;;;5050392;28;20025;-84
2022/03/02 07:23:34;;;;;;;7.95;3.60;;;8.40;99.90;;;;;;5051588;28;20029;-84
2022/03/02 07:26:01;;;;;;;11.45;4.03;;;8.60;99.90;;;;;;5053482;28;20070;-85
2022/03/02 07:28:27;;;;;;;7.03;4.10;;;8.90;99.90;;;;;;5051426;28;20067;-84
2022/03/02 07:30:57;;;;;;;7.80;3.75;;;9.30;99.90;;;;;;5051722;28;20025;-84
2022/03/02 07:33:25;;;;;;;8.90;4.18;;;10.00;99.90;;;;;;5051396;28;20028;-84
2022/03/02 07:35:57;;;;;;;6.25;3.58;;;10.60;99.90;;;;;;5051016;28;20056;-84
2022/03/02 07:38:25;;;;;;;6.10;3.10;;;11.70;99.90;;;;;;5051282;28;20162;-84
2022/03/02 07:40:52;;;;;;;6.80;3.53;;;12.30;99.90;;;;;;5050219;28;20029;-84
2022/03/02 07:43:20;;;;;;;7.35;4.07;;;11.20;99.90;;;;;;5050240;28;20033;-84
2022/03/02 07:45:46;;;;;;;9.32;4.63;;;10.80;99.90;;;;;;5051081;28;20021;-84
2022/03/02 07:48:12;;;;;;;12.95;4.95;;;10.90;99.90;;;;;;5051210;28;20517;-84
2022/03/02 07:50:40;;;;;;;11.52;4.63;;;11.10;99.90;;;;;;5032733;28;20033;-84
2022/03/02 07:53:07;;;;;;;8.90;5.05;;;10.60;99.90;;;;;;5052097;28;20063;-84
2022/03/02 07:55:34;;;;;;;11.10;4.68;;;10.40;99.90;;;;;;5050770;28;20052;-84
2022/03/02 07:58:03;;;;;;;7.78;4.53;;;11.00;99.90;;;;;;5045888;28;20029;-84
2022/03/02 08:00:30;;;;;;;9.13;4.47;;;11.00;99.90;;;;;;5048593;28;20032;-84
2022/03/02 08:03:00;;;;;;;7.78;4.32;;;10.80;99.90;;;;;;5051434;28;20055;-84
2022/03/02 08:05:26;;;;;;;7.97;4.68;;;10.70;99.90;;;;;;5050630;28;20021;-84
2022/03/02 08:07:52;;;;;;;7.40;4.50;;;10.50;99.90;;;;;;5039942;28;20028;-84
2022/03/02 08:10:18;;;;;;;8.13;4.75;;;10.60;99.90;;;;;;5049125;28;20025;-84
2022/03/02 08:12:45;;;;;;;11.25;4.47;;;11.00;99.90;;;;;;5050696;28;20524;-84
2022/03/02 08:15:12;;;;;;;9.55;4.38;;;11.00;99.90;;;;;;5049619;28;20032;-84
2022/03/02 08:17:38;;;;;;;8.75;4.43;;;11.10;99.90;;;;;;5050811;28;20044;-84
2022/03/02 08:20:05;;;;;;;7.47;4.00;;;11.20;99.90;;;;;;5049131;28;20094;-84
2022/03/02 08:22:32;;;;;;;8.15;4.38;;;11.00;99.90;;;;;;5050471;28;20494;-84
2022/03/02 08:25:06;;;;;;;12.23;4.72;;;10.70;99.90;;;;;;5050559;28;20032;-83
2022/03/02 08:27:33;;;;;;;11.10;4.40;;;10.50;99.90;;;;;;5050381;28;20024;-84
2022/03/02 08:30:01;;;;;;;9.80;4.28;;;10.50;99.90;;;;;;5050129;28;20032;-84
2022/03/02 08:32:34;;;;;;;8.50;4.85;;;10.50;99.90;;;;;;5049588;28;20033;-84
2022/03/02 08:35:00;;;;;;;8.15;4.78;;;10.40;99.90;;;;;;5052632;28;20079;-84
2022/03/02 08:37:29;;;;;;;9.25;4.35;;;10.40;99.90;;;;;;5049222;28;20064;-84
2022/03/02 08:39:55;;;;;;;6.45;4.07;;;10.30;99.90;;;;;;5047808;28;20025;-84
2022/03/02 08:42:20;;;;;;;12.15;5.15;;;10.30;99.90;;;;;;5049746;28;20027;-83
2022/03/02 08:44:47;;;;;;;7.45;5.13;;;10.20;99.90;;;;;;5050124;28;20036;-84
2022/03/02 08:47:14;;;;;;;8.05;4.47;;;10.30;99.90;;;;;;5050300;28;20013;-84
2022/03/02 08:49:39;;;;;;;12.18;5.15;;;10.30;99.90;;;;;;5050172;28;20037;-84
2022/03/02 08:52:06;;;;;;;13.75;6.13;;;10.30;99.90;;;;;;5049156;28;20025;-84
2022/03/02 08:54:38;;;;;;;11.98;6.03;;;10.30;99.90;;;;;;5050262;28;20025;-84
2022/03/02 08:57:05;;;;;;;12.82;5.68;;;10.20;99.90;;;;;;5047722;28;20027;-84
2022/03/02 08:59:34;;;;;;;8.63;5.00;;;10.20;99.90;;;;;;5049855;28;20497;-83
2022/03/02 09:02:01;;;;;;;9.38;5.63;;;10.30;99.90;;;;;;5051005;28;20079;-83
2022/03/02 09:04:33;;;;;;;13.32;5.10;;;10.40;99.90;;;;;;5049383;28;20025;-83
2022/03/02 09:06:59;;;;;;;;;;;10.40;99.90;;;;;;5049881;28;20013;-83
2022/03/02 09:09:25;;;;;;;11.57;4.72;;;10.50;99.90;;;;;;5049305;28;19992;-83
2022/03/02 09:11:51;;;;;;;9.10;4.43;;;10.60;99.90;;;;;;5048541;28;20120;-83
2022/03/02 09:14:18;;;;;;;12.77;4.70;;;10.70;99.90;;;;;;5040537;28;20108;-83
2022/03/02 09:16:44;;;;;;;13.00;5.18;;;10.80;99.90;;;;;;5047138;28;20028;-83
2022/03/02 09:19:10;;;;;;;10.02;5.22;;;10.80;99.90;;;;;;5047253;28;20035;-83
2022/03/02 09:21:37;;;;;;;11.23;5.00;;;10.90;99.90;;;;;;5049350;28;20029;-83
2022/03/02 09:24:05;;;;;;;8.05;4.38;;;10.90;99.90;;;;;;5049415;28;20029;-83
2022/03/02 09:26:32;;;;;;;9.27;4.63;;;10.90;99.90;;;;;;5049388;28;20156;-83
2022/03/02 09:29:03;;;;;;;7.10;4.85;;;10.90;99.90;;;;;;5051159;28;20017;-83
2022/03/02 09:31:29;;;;;;;8.63;4.00;;;11.00;99.90;;;;;;5047648;28;20025;-83
2022/03/02 09:33:58;;;;;;;6.38;4.63;;;11.20;99.90;;;;;;5049582;28;20275;-83
2022/03/02 09:36:25;;;;;;;7.32;4.60;;;11.50;99.90;;;;;;5046592;28;20052;-83
2022/03/02 09:38:52;;;;;;;8.80;4.05;;;11.60;99.90;;;;;;5049620;28;20371;-83
2022/03/02 09:41:49;;;;;;;11.27;3.92;;;11.60;99.90;;;;;;5049142;28;20036;-83
2022/03/02 09:44:19;;;;;;;9.88;3.92;;;11.60;99.90;;;;;;5044928;28;20040;-83
2022/03/02 09:46:50;;;;;;;10.07;4.43;;;11.50;99.90;;;;;;5051070;28;20114;-83
2022/03/02 09:49:20;;;;;;;7.30;4.05;;;11.40;99.90;;;;;;5048297;28;20080;-83
2022/03/02 09:51:51;;;;;;;8.00;4.60;;;11.30;99.90;;;;;;5046898;28;20036;-83
2022/03/02 09:54:21;;;;;;;13.35;5.32;;;11.40;99.90;;;;;;5044674;28;20021;-83
2022/03/02 09:56:50;;;;;;;11.30;6.00;;;11.30;99.90;;;;;;5048882;28;20036;-83
2022/03/02 09:59:17;;;;;;;12.10;4.90;;;11.40;99.90;;;;;;5046657;28;20021;-83
2022/03/02 10:01:44;;;;;;;12.00;5.72;;;11.50;99.90;;;;;;5049984;28;20032;-83
2022/03/02 10:04:22;;;;;;;11.18;5.40;;;11.50;99.90;;;;;;5048755;28;20033;-83
2022/03/02 10:06:50;;;;;;;12.25;5.40;;;11.50;99.90;;;;;;5030549;28;20048;-83
2022/03/02 10:09:23;;;;;;;12.18;5.38;;;11.30;99.90;;;;;;5046865;28;20016;-83
2022/03/02 10:11:49;;;;;;;8.90;4.78;;;11.30;99.90;;;;;;5048611;28;20043;-83
2022/03/02 10:14:19;;;;;;;8.45;4.68;;;11.40;99.90;;;;;;5049150;28;20029;-83
2022/03/02 10:16:47;;;;;;;10.85;4.78;;;11.40;99.90;;;;;;5048064;28;20029;-83
2022/03/02 10:19:23;;;;;;;13.77;5.25;;;11.30;99.90;;;;;;5048575;28;20112;-83
2022/03/02 10:22:03;;;;;;;8.60;5.35;;;11.30;99.90;;;;;;5048206;28;20032;-83
2022/03/02 10:24:32;;;;;;;7.22;4.68;;;11.30;99.90;;;;;;5048339;28;20035;-83
2022/03/02 10:27:06;;;;;;;9.38;4.95;;;11.40;99.90;;;;;;5036291;28;20040;-83
2022/03/02 10:29:47;;;;;;;9.40;5.05;;;11.40;99.90;;;;;;5036478;28;20036;-83
2022/03/02 10:32:17;;;;;;;8.70;5.30;;;11.40;99.90;;;;;;5046253;28;20013;-83
2022/03/02 10:34:50;;;;;;;8.90;5.50;;;11.40;99.90;;;;;;5044294;28;20022;-83
2022/03/02 10:37:48;;;;;;;8.55;4.65;;;11.40;99.90;;;;;;5044457;28;20021;-83
2022/03/02 10:40:17;;;;;;;12.35;5.13;;;11.50;99.90;;;;;;5046386;28;20029;-83
2022/03/02 10:42:50;;;;;;;11.48;4.45;;;11.50;99.90;;;;;;5048060;28;20025;-82
2022/03/02 10:45:22;;;;;;;8.70;4.93;;;11.50;99.90;;;;;;5048291;28;20025;-82
2022/03/02 10:48:09;;;;;;;8.15;4.82;;;11.60;99.90;;;;;;5046215;28;20032;-83
2022/03/02 10:50:36;;;;;;;11.43;5.35;;;11.90;99.90;;;;;;5033925;28;20040;-83
2022/03/02 10:53:05;;;;;;;10.13;4.22;;;12.00;99.90;;;;;;5050627;28;20060;-83
2022/03/02 10:55:33;;;;;;;9.02;4.53;;;12.10;99.90;;;;;;5048145;28;20037;-83
2022/03/02 10:58:03;;;;;;;10.55;4.45;;;12.00;99.90;;;;;;5051505;28;20029;-83
2022/03/02 11:00:29;;;;;;;11.80;4.47;;;12.10;99.90;;;;;;5052064;28;20032;-83
2022/03/02 11:02:57;;;;;;;8.68;3.97;;;12.10;99.90;;;;;;5052213;28;20040;-83
2022/03/02 11:05:24;;;;;;;12.00;4.75;;;12.10;99.90;;;;;;5050822;28;20483;-83
2022/03/02 11:07:51;;;;;;;8.05;3.78;;;12.10;99.90;;;;;;5053721;28;20013;-83
2022/03/02 11:10:21;;;;;;;6.60;3.42;;;12.00;99.90;;;;;;5050465;28;20027;-83
2022/03/02 11:12:49;;;;;;;10.50;4.00;;;12.00;99.90;;;;;;5048152;28;20040;-83
2022/03/02 11:15:17;;;;;;;8.85;3.63;;;12.00;99.90;;;;;;5043998;28;20108;-83
2022/03/02 11:18:00;;;;;;;9.18;3.65;;;11.90;99.90;;;;;;5051696;28;20036;-82
2022/03/02 11:20:29;;;;;;;6.97;3.83;;;11.80;99.90;;;;;;5052263;28;20032;-83
2022/03/02 11:22:59;;;;;;;7.90;4.25;;;11.80;99.90;;;;;;5053553;28;20029;-83
2022/03/02 11:25:49;;;;;;;7.80;3.90;;;11.80;99.90;;;;;;5051202;28;20021;-83
2022/03/02 11:28:25;;;;;;;7.93;3.38;;;11.90;99.90;;;;;;5049228;28;20108;-83
2022/03/02 11:30:57;;;;;;;12.65;4.00;;;11.90;99.90;;;;;;5045771;28;20017;-83
2022/03/02 11:33:28;;;;;;;8.68;4.10;;;11.90;99.90;;;;;;5050619;28;20098;-83
2022/03/02 11:36:06;;;;;;;5.35;3.15;;;11.90;99.90;;;;;;5051419;28;20036;-83
2022/03/02 11:38:32;;;;;;;10.00;3.78;;;11.90;99.90;;;;;;5051555;28;20107;-83
2022/03/02 11:41:00;;;;;;;6.13;3.05;;;11.80;99.90;;;;;;5053316;28;20104;-82
2022/03/02 11:43:29;;;;;;;5.93;3.22;;;11.80;99.90;;;;;;5051428;28;20102;-83
2022/03/02 11:46:07;;;;;;;6.53;3.17;;;11.70;99.90;;;;;;5050977;28;20025;-83
2022/03/02 11:48:37;;;;;;;10.45;3.88;;;11.70;99.90;;;;;;5049218;28;20087;-83
2022/03/02 11:51:03;;;;;;;9.75;4.22;;;11.60;99.90;;;;;;5038890;28;20021;-83
2022/03/02 11:53:31;;;;;;;8.57;3.60;;;11.60;99.90;;;;;;5051022;28;20572;-83
2022/03/02 11:55:59;;;;;;;8.15;3.83;;;11.50;99.90;;;;;;5051055;28;20021;-83
2022/03/02 11:58:26;;;;;;;5.15;2.92;;;11.50;99.90;;;;;;5051076;28;20063;-83
2022/03/02 12:00:52;;;;;;;5.55;2.92;;;11.50;99.90;;;;;;5050947;28;20037;-83
2022/03/02 12:03:18;;;;;;;5.70;3.40;;;11.40;99.90;;;;;;5050783;28;20372;-84
2022/03/02 12:05:44;;;;;;;3.97;3.13;;;11.30;99.90;;;;;;5050338;28;20013;-86
2022/03/02 12:08:12;;;;;;;3.97;2.58;;;11.30;99.90;;;;;;5049969;28;20517;-85
2022/03/02 12:10:41;;;;;;;4.70;3.05;;;11.30;99.90;;;;;;5052182;28;20017;-84
2022/03/02 12:13:08;;;;;;;6.03;2.67;;;11.20;99.90;;;;;;5047821;28;20115;-84
2022/03/02 12:15:51;;;;;;;3.25;2.50;;;11.20;99.90;;;;;;5049522;28;20021;-83
2022/03/02 12:18:19;;;;;;;3.28;2.40;;;11.20;99.90;;;;;;5051111;28;20029;-82
2022/03/02 12:20:45;;;;;;;4.05;2.50;;;11.10;99.90;;;;;;5037342;28;20020;-82
2022/03/02 12:23:12;;;;;;;7.50;2.95;;;11.10;99.90;;;;;;5051340;28;20083;-82
2022/03/02 12:25:47;;;;;;;3.70;3.00;;;10.90;99.90;;;;;;5051311;28;20023;-82
2022/03/02 12:28:18;;;;;;;3.50;2.97;;;10.70;99.90;;;;;;5048799;28;20029;-81
2022/03/02 12:30:44;;;;;;;5.37;2.57;;;10.70;99.90;;;;;;5045960;28;20090;-81
2022/03/02 12:33:10;;;;;;;4.53;2.90;;;10.70;99.90;;;;;;5030301;28;20515;-81
2022/03/02 12:35:36;;;;;;;6.95;3.03;;;10.70;99.90;;;;;;5050785;28;20036;-81
2022/03/02 12:38:07;;;;;;;3.58;2.40;;;10.60;99.90;;;;;;5048012;28;20085;-81
2022/03/02 12:40:39;;;;;;;6.18;2.92;;;10.70;99.90;;;;;;5051880;28;20025;-81
2022/03/02 12:43:11;;;;;;;4.78;3.05;;;10.60;99.90;;;;;;5050035;28;20037;-81
2022/03/02 12:45:42;;;;;;;3.92;3.03;;;10.60;99.90;;;;;;5049916;28;20025;-81
2022/03/02 12:48:09;;;;;;;4.35;2.97;;;10.60;99.90;;;;;;5049510;28;20013;-81
2022/03/02 12:50:36;;;;;;;4.65;2.97;;;10.60;99.90;;;;;;5042616;28;20052;-81
2022/03/02 12:53:03;;;;;;;9.02;3.20;;;10.60;99.90;;;;;;5049498;28;20016;-82